Terminal Aerodrome Forecast
Issued by NWS Cleveland, OH

Home | Current Version | Previous Version | Text Only | Print | Product List | Glossary Off
Versions: 1 2 3 4 5 6 7 8 9 10 11 12 13 14

967
FTUS41 KCLE 210521
TAFERI
TAF
KERI 210521Z 2106/2206 00000KT P6SM FEW250
     FM211800 33006KT P6SM FEW250
     FM220100 00000KT P6SM FEW200=

USA.gov is the U.S. government's official web portal to all federal, state and local government web resources and services.